sensor_id;sensor_type;location;lat;lon;timestamp;temperature;humidity
11559;DHT22;5835;42.930;25.178;2022-11-20T00:00:52;16.90;1.00
11559;DHT22;5835;42.930;25.178;2022-11-20T00:03:20;16.90;1.00
11559;DHT22;5835;42.930;25.178;2022-11-20T00:05:48;16.90;1.00
11559;DHT22;5835;42.930;25.178;2022-11-20T00:08:16;16.90;1.00
11559;DHT22;5835;42.930;25.178;2022-11-20T00:10:43;16.90;1.00
11559;DHT22;5835;42.930;25.178;2022-11-20T00:13:11;17.00;1.00
11559;DHT22;5835;42.930;25.178;2022-11-20T00:15:40;17.10;1.00
11559;DHT22;5835;42.930;25.178;2022-11-20T00:18:08;17.00;1.00
11559;DHT22;5835;42.930;25.178;2022-11-20T00:20:35;17.10;1.00
11559;DHT22;5835;42.930;25.178;2022-11-20T00:23:03;17.00;1.00
11559;DHT22;5835;42.930;25.178;2022-11-20T00:25:33;16.90;1.00
11559;DHT22;5835;42.930;25.178;2022-11-20T00:28:00;16.80;1.00
11559;DHT22;5835;42.930;25.178;2022-11-20T00:30:28;16.70;1.00
11559;DHT22;5835;42.930;25.178;2022-11-20T00:32:58;16.60;1.00
11559;DHT22;5835;42.930;25.178;2022-11-20T00:35:26;16.60;1.00
11559;DHT22;5835;42.930;25.178;2022-11-20T00:37:53;16.60;1.00
11559;DHT22;5835;42.930;25.178;2022-11-20T00:40:20;16.60;1.00
11559;DHT22;5835;42.930;25.178;2022-11-20T00:42:48;16.60;1.00
11559;DHT22;5835;42.930;25.178;2022-11-20T00:45:15;16.50;1.00
11559;DHT22;5835;42.930;25.178;2022-11-20T00:47:43;16.50;1.10
11559;DHT22;5835;42.930;25.178;2022-11-20T00:50:12;16.50;10.90
11559;DHT22;5835;42.930;25.178;2022-11-20T00:52:40;16.40;22.30
11559;DHT22;5835;42.930;25.178;2022-11-20T00:55:08;16.40;24.70
11559;DHT22;5835;42.930;25.178;2022-11-20T00:57:36;16.40;32.60
11559;DHT22;5835;42.930;25.178;2022-11-20T01:00:05;16.40;31.30
11559;DHT22;5835;42.930;25.178;2022-11-20T01:02:32;16.40;46.30
11559;DHT22;5835;42.930;25.178;2022-11-20T01:05:00;16.40;40.50
11559;DHT22;5835;42.930;25.178;2022-11-20T01:07:29;16.40;46.70
11559;DHT22;5835;42.930;25.178;2022-11-20T01:09:57;16.40;48.90
11559;DHT22;5835;42.930;25.178;2022-11-20T01:12:24;16.40;65.40
11559;DHT22;5835;42.930;25.178;2022-11-20T01:14:52;16.30;59.00
11559;DHT22;5835;42.930;25.178;2022-11-20T01:17:19;16.30;56.90
11559;DHT22;5835;42.930;25.178;2022-11-20T01:19:49;16.30;62.60
11559;DHT22;5835;42.930;25.178;2022-11-20T01:22:16;16.30;53.40
11559;DHT22;5835;42.930;25.178;2022-11-20T01:24:45;16.30;16.70
11559;DHT22;5835;42.930;25.178;2022-11-20T01:27:13;16.50;1.00
11559;DHT22;5835;42.930;25.178;2022-11-20T01:29:41;16.50;1.00
11559;DHT22;5835;42.930;25.178;2022-11-20T01:32:08;16.60;1.00
11559;DHT22;5835;42.930;25.178;2022-11-20T01:34:35;16.70;1.00
11559;DHT22;5835;42.930;25.178;2022-11-20T01:37:03;16.80;1.00
11559;DHT22;5835;42.930;25.178;2022-11-20T01:39:31;16.80;99.90
11559;DHT22;5835;42.930;25.178;2022-11-20T01:42:00;16.90;99.90
11559;DHT22;5835;42.930;25.178;2022-11-20T01:44:51;16.90;99.90
11559;DHT22;5835;42.930;25.178;2022-11-20T01:47:29;16.90;99.90
11559;DHT22;5835;42.930;25.178;2022-11-20T01:50:01;16.80;1.00
11559;DHT22;5835;42.930;25.178;2022-11-20T01:52:34;16.70;1.00
11559;DHT22;5835;42.930;25.178;2022-11-20T01:55:05;16.70;1.00
11559;DHT22;5835;42.930;25.178;2022-11-20T01:57:36;16.50;1.00
11559;DHT22;5835;42.930;25.178;2022-11-20T02:00:07;16.50;1.00
11559;DHT22;5835;42.930;25.178;2022-11-20T02:02:36;16.50;1.00
11559;DHT22;5835;42.930;25.178;2022-11-20T02:05:14;16.50;1.00
11559;DHT22;5835;42.930;25.178;2022-11-20T02:07:44;16.60;1.00
11559;DHT22;5835;42.930;25.178;2022-11-20T02:10:12;16.70;99.90
11559;DHT22;5835;42.930;25.178;2022-11-20T02:12:41;16.80;99.90
11559;DHT22;5835;42.930;25.178;2022-11-20T02:15:26;16.80;99.90
11559;DHT22;5835;42.930;25.178;2022-11-20T02:17:54;16.80;8.40
11559;DHT22;5835;42.930;25.178;2022-11-20T02:20:22;16.80;16.90
11559;DHT22;5835;42.930;25.178;2022-11-20T02:22:55;16.80;1.00
11559;DHT22;5835;42.930;25.178;2022-11-20T02:25:27;16.90;99.90
11559;DHT22;5835;42.930;25.178;2022-11-20T02:27:56;17.00;1.00
11559;DHT22;5835;42.930;25.178;2022-11-20T02:30:24;17.10;99.90
11559;DHT22;5835;42.930;25.178;2022-11-20T02:32:51;17.10;99.90
11559;DHT22;5835;42.930;25.178;2022-11-20T02:35:42;17.10;99.90
11559;DHT22;5835;42.930;25.178;2022-11-20T02:38:10;17.20;99.90
11559;DHT22;5835;42.930;25.178;2022-11-20T02:40:39;17.20;99.90
11559;DHT22;5835;42.930;25.178;2022-11-20T02:43:08;17.30;1.00
11559;DHT22;5835;42.930;25.178;2022-11-20T02:45:36;17.30;99.90
11559;DHT22;5835;42.930;25.178;2022-11-20T02:48:05;17.30;1.00
11559;DHT22;5835;42.930;25.178;2022-11-20T02:50:33;17.30;1.00
11559;DHT22;5835;42.930;25.178;2022-11-20T02:53:00;17.40;99.90
11559;DHT22;5835;42.930;25.178;2022-11-20T02:55:28;17.50;1.00
11559;DHT22;5835;42.930;25.178;2022-11-20T02:57:57;17.50;1.00
11559;DHT22;5835;42.930;25.178;2022-11-20T03:00:25;17.40;1.00
11559;DHT22;5835;42.930;25.178;2022-11-20T03:02:52;17.40;38.60
11559;DHT22;5835;42.930;25.178;2022-11-20T03:05:19;17.40;1.00
11559;DHT22;5835;42.930;25.178;2022-11-20T03:07:47;17.50;1.00
11559;DHT22;5835;42.930;25.178;2022-11-20T03:10:15;17.40;1.00
11559;DHT22;5835;42.930;25.178;2022-11-20T03:12:42;17.40;1.00
11559;DHT22;5835;42.930;25.178;2022-11-20T03:15:12;17.20;99.90
11559;DHT22;5835;42.930;25.178;2022-11-20T03:17:40;17.00;99.90
11559;DHT22;5835;42.930;25.178;2022-11-20T03:20:08;16.80;1.00
11559;DHT22;5835;42.930;25.178;2022-11-20T03:22:36;16.70;1.00
11559;DHT22;5835;42.930;25.178;2022-11-20T03:25:04;16.70;1.00
11559;DHT22;5835;42.930;25.178;2022-11-20T03:27:33;16.70;1.00
11559;DHT22;5835;42.930;25.178;2022-11-20T03:30:01;16.70;1.00
11559;DHT22;5835;42.930;25.178;2022-11-20T03:32:30;16.90;1.00
11559;DHT22;5835;42.930;25.178;2022-11-20T03:34:58;17.10;1.00
11559;DHT22;5835;42.930;25.178;2022-11-20T03:37:26;17.20;99.90
11559;DHT22;5835;42.930;25.178;2022-11-20T03:39:53;17.30;99.90
11559;DHT22;5835;42.930;25.178;2022-11-20T03:42:20;17.40;99.90
11559;DHT22;5835;42.930;25.178;2022-11-20T03:45:06;17.40;1.00
11559;DHT22;5835;42.930;25.178;2022-11-20T03:47:35;17.50;1.00
11559;DHT22;5835;42.930;25.178;2022-11-20T03:50:04;17.30;1.00
11559;DHT22;5835;42.930;25.178;2022-11-20T03:52:31;17.10;59.90
11559;DHT22;5835;42.930;25.178;2022-11-20T03:54:59;17.00;99.90
11559;DHT22;5835;42.930;25.178;2022-11-20T03:57:26;16.90;99.90
11559;DHT22;5835;42.930;25.178;2022-11-20T03:59:54;17.00;98.80
11559;DHT22;5835;42.930;25.178;2022-11-20T04:02:22;16.90;99.90
11559;DHT22;5835;42.930;25.178;2022-11-20T04:04:51;16.80;99.90
11559;DHT22;5835;42.930;25.178;2022-11-20T04:07:19;16.90;99.90
11559;DHT22;5835;42.930;25.178;2022-11-20T04:09:46;16.80;1.00
11559;DHT22;5835;42.930;25.178;2022-11-20T04:12:14;16.70;1.00
11559;DHT22;5835;42.930;25.178;2022-11-20T04:14:41;16.70;1.00
11559;DHT22;5835;42.930;25.178;2022-11-20T04:17:09;16.70;1.00
11559;DHT22;5835;42.930;25.178;2022-11-20T04:19:37;16.70;1.00
11559;DHT22;5835;42.930;25.178;2022-11-20T04:22:06;16.70;1.00
11559;DHT22;5835;42.930;25.178;2022-11-20T04:24:34;16.70;1.00
11559;DHT22;5835;42.930;25.178;2022-11-20T04:27:01;16.70;99.90
11559;DHT22;5835;42.930;25.178;2022-11-20T04:29:29;16.70;1.00
11559;DHT22;5835;42.930;25.178;2022-11-20T04:31:57;16.70;99.10
11559;DHT22;5835;42.930;25.178;2022-11-20T04:34:24;16.80;1.00
11559;DHT22;5835;42.930;25.178;2022-11-20T04:36:52;16.80;99.90
11559;DHT22;5835;42.930;25.178;2022-11-20T04:39:21;16.80;99.90
11559;DHT22;5835;42.930;25.178;2022-11-20T04:41:48;16.80;99.90
11559;DHT22;5835;42.930;25.178;2022-11-20T04:44:36;16.70;99.90
11559;DHT22;5835;42.930;25.178;2022-11-20T04:47:03;16.70;1.00
11559;DHT22;5835;42.930;25.178;2022-11-20T04:49:31;17.00;1.00
11559;DHT22;5835;42.930;25.178;2022-11-20T04:51:59;17.10;99.90
11559;DHT22;5835;42.930;25.178;2022-11-20T04:54:28;17.20;1.00
11559;DHT22;5835;42.930;25.178;2022-11-20T04:56:56;17.40;99.90
11559;DHT22;5835;42.930;25.178;2022-11-20T04:59:24;17.50;99.90
11559;DHT22;5835;42.930;25.178;2022-11-20T05:01:51;17.60;1.00
11559;DHT22;5835;42.930;25.178;2022-11-20T05:04:19;17.70;99.90
11559;DHT22;5835;42.930;25.178;2022-11-20T05:06:46;17.50;1.00
11559;DHT22;5835;42.930;25.178;2022-11-20T05:09:14;17.40;99.90
11559;DHT22;5835;42.930;25.178;2022-11-20T05:11:42;17.30;99.90
11559;DHT22;5835;42.930;25.178;2022-11-20T05:14:10;17.30;99.90
11559;DHT22;5835;42.930;25.178;2022-11-20T05:16:37;17.40;99.90
11559;DHT22;5835;42.930;25.178;2022-11-20T05:19:04;17.50;99.90
11559;DHT22;5835;42.930;25.178;2022-11-20T05:21:32;17.50;99.90
11559;DHT22;5835;42.930;25.178;2022-11-20T05:23:59;17.50;99.90
11559;DHT22;5835;42.930;25.178;2022-11-20T05:26:27;17.40;99.90
11559;DHT22;5835;42.930;25.178;2022-11-20T05:28:56;17.40;99.90
11559;DHT22;5835;42.930;25.178;2022-11-20T05:31:24;17.50;1.00
11559;DHT22;5835;42.930;25.178;2022-11-20T05:33:52;17.60;99.90
11559;DHT22;5835;42.930;25.178;2022-11-20T05:36:20;17.70;1.00
11559;DHT22;5835;42.930;25.178;2022-11-20T05:38:47;17.50;99.90
11559;DHT22;5835;42.930;25.178;2022-11-20T05:41:17;17.60;1.00
11559;DHT22;5835;42.930;25.178;2022-11-20T05:43:46;17.60;99.90
11559;DHT22;5835;42.930;25.178;2022-11-20T05:46:16;17.70;99.90
11559;DHT22;5835;42.930;25.178;2022-11-20T05:48:45;17.70;99.90
11559;DHT22;5835;42.930;25.178;2022-11-20T05:51:15;17.70;62.90
11559;DHT22;5835;42.930;25.178;2022-11-20T05:53:44;17.70;99.90
11559;DHT22;5835;42.930;25.178;2022-11-20T05:56:13;17.60;99.90
11559;DHT22;5835;42.930;25.178;2022-11-20T05:58:41;17.60;99.90
11559;DHT22;5835;42.930;25.178;2022-11-20T06:01:12;17.70;1.00
11559;DHT22;5835;42.930;25.178;2022-11-20T06:03:42;17.80;1.00
11559;DHT22;5835;42.930;25.178;2022-11-20T06:06:12;17.80;1.00
11559;DHT22;5835;42.930;25.178;2022-11-20T06:08:39;17.50;1.00
11559;DHT22;5835;42.930;25.178;2022-11-20T06:11:09;16.80;99.90
11559;DHT22;5835;42.930;25.178;2022-11-20T06:13:37;16.90;99.90
11559;DHT22;5835;42.930;25.178;2022-11-20T06:16:05;17.30;99.90
11559;DHT22;5835;42.930;25.178;2022-11-20T06:18:33;17.30;99.90
11559;DHT22;5835;42.930;25.178;2022-11-20T06:21:04;16.50;1.00
11559;DHT22;5835;42.930;25.178;2022-11-20T06:23:32;16.00;1.00
11559;DHT22;5835;42.930;25.178;2022-11-20T06:26:02;15.70;1.00
11559;DHT22;5835;42.930;25.178;2022-11-20T06:28:30;15.50;1.00
11559;DHT22;5835;42.930;25.178;2022-11-20T06:30:58;15.20;1.00
11559;DHT22;5835;42.930;25.178;2022-11-20T06:33:26;14.90;1.00
11559;DHT22;5835;42.930;25.178;2022-11-20T06:35:56;14.70;1.00
11559;DHT22;5835;42.930;25.178;2022-11-20T06:38:25;14.50;1.00
11559;DHT22;5835;42.930;25.178;2022-11-20T06:40:53;14.50;1.00
11559;DHT22;5835;42.930;25.178;2022-11-20T06:43:21;14.40;99.90
11559;DHT22;5835;42.930;25.178;2022-11-20T06:45:52;14.10;99.90
11559;DHT22;5835;42.930;25.178;2022-11-20T06:48:20;13.80;1.00
11559;DHT22;5835;42.930;25.178;2022-11-20T06:50:48;13.70;1.00
11559;DHT22;5835;42.930;25.178;2022-11-20T06:53:16;13.40;1.00
11559;DHT22;5835;42.930;25.178;2022-11-20T06:55:45;13.40;99.90
11559;DHT22;5835;42.930;25.178;2022-11-20T06:58:14;12.70;1.00
11559;DHT22;5835;42.930;25.178;2022-11-20T07:00:42;12.70;99.90
11559;DHT22;5835;42.930;25.178;2022-11-20T07:03:11;12.50;1.00
11559;DHT22;5835;42.930;25.178;2022-11-20T07:05:39;12.50;1.00
11559;DHT22;5835;42.930;25.178;2022-11-20T07:08:07;12.40;1.00
11559;DHT22;5835;42.930;25.178;2022-11-20T07:10:35;12.50;1.00
11559;DHT22;5835;42.930;25.178;2022-11-20T07:13:05;12.50;1.00
11559;DHT22;5835;42.930;25.178;2022-11-20T07:15:33;12.40;1.00
11559;DHT22;5835;42.930;25.178;2022-11-20T07:18:00;12.30;1.00
11559;DHT22;5835;42.930;25.178;2022-11-20T07:20:28;12.30;1.00
11559;DHT22;5835;42.930;25.178;2022-11-20T07:22:56;11.90;1.00
11559;DHT22;5835;42.930;25.178;2022-11-20T07:25:25;12.00;1.00
11559;DHT22;5835;42.930;25.178;2022-11-20T07:27:56;11.90;1.00
11559;DHT22;5835;42.930;25.178;2022-11-20T07:30:25;11.70;1.00
11559;DHT22;5835;42.930;25.178;2022-11-20T07:32:53;11.50;1.00
11559;DHT22;5835;42.930;25.178;2022-11-20T07:35:21;11.30;1.00
11559;DHT22;5835;42.930;25.178;2022-11-20T07:37:49;11.20;2.10
11559;DHT22;5835;42.930;25.178;2022-11-20T07:40:17;11.10;46.00
11559;DHT22;5835;42.930;25.178;2022-11-20T07:42:49;11.00;51.90
11559;DHT22;5835;42.930;25.178;2022-11-20T07:45:17;10.70;88.70
11559;DHT22;5835;42.930;25.178;2022-11-20T07:47:46;10.70;99.90
11559;DHT22;5835;42.930;25.178;2022-11-20T07:50:15;10.70;99.90
11559;DHT22;5835;42.930;25.178;2022-11-20T07:52:42;10.80;99.90
11559;DHT22;5835;42.930;25.178;2022-11-20T07:55:10;10.90;99.90
11559;DHT22;5835;42.930;25.178;2022-11-20T07:57:38;11.00;96.00
11559;DHT22;5835;42.930;25.178;2022-11-20T08:00:08;10.90;99.90
11559;DHT22;5835;42.930;25.178;2022-11-20T08:02:37;10.70;99.90
11559;DHT22;5835;42.930;25.178;2022-11-20T08:05:08;10.90;99.90
11559;DHT22;5835;42.930;25.178;2022-11-20T08:07:36;11.00;99.90
11559;DHT22;5835;42.930;25.178;2022-11-20T08:10:05;11.00;99.90
11559;DHT22;5835;42.930;25.178;2022-11-20T08:12:33;11.20;94.90
11559;DHT22;5835;42.930;25.178;2022-11-20T08:15:18;11.20;92.50
11559;DHT22;5835;42.930;25.178;2022-11-20T08:17:46;11.20;92.00
11559;DHT22;5835;42.930;25.178;2022-11-20T08:20:15;11.00;99.90
11559;DHT22;5835;42.930;25.178;2022-11-20T08:22:43;11.00;99.90
11559;DHT22;5835;42.930;25.178;2022-11-20T08:25:10;10.90;99.90
11559;DHT22;5835;42.930;25.178;2022-11-20T08:27:38;10.90;99.90
11559;DHT22;5835;42.930;25.178;2022-11-20T08:30:07;11.10;99.90
11559;DHT22;5835;42.930;25.178;2022-11-20T08:32:35;11.10;99.90
11559;DHT22;5835;42.930;25.178;2022-11-20T08:35:03;11.20;99.90
11559;DHT22;5835;42.930;25.178;2022-11-20T08:37:32;11.10;99.90
11559;DHT22;5835;42.930;25.178;2022-11-20T08:40:00;11.20;99.90
11559;DHT22;5835;42.930;25.178;2022-11-20T08:42:27;11.00;93.60
11559;DHT22;5835;42.930;25.178;2022-11-20T08:44:55;11.10;99.90
11559;DHT22;5835;42.930;25.178;2022-11-20T08:47:22;11.20;99.90
11559;DHT22;5835;42.930;25.178;2022-11-20T08:49:50;11.30;99.50
11559;DHT22;5835;42.930;25.178;2022-11-20T08:52:18;11.30;99.90
11559;DHT22;5835;42.930;25.178;2022-11-20T08:54:47;11.40;95.90
11559;DHT22;5835;42.930;25.178;2022-11-20T08:57:15;11.20;97.10
11559;DHT22;5835;42.930;25.178;2022-11-20T08:59:43;11.30;89.60
11559;DHT22;5835;42.930;25.178;2022-11-20T09:02:11;11.10;92.10
11559;DHT22;5835;42.930;25.178;2022-11-20T09:04:39;11.30;97.40
11559;DHT22;5835;42.930;25.178;2022-11-20T09:07:06;11.70;84.20
11559;DHT22;5835;42.930;25.178;2022-11-20T09:09:34;11.70;9.30
11559;DHT22;5835;42.930;25.178;2022-11-20T09:12:03;11.60;42.90
11559;DHT22;5835;42.930;25.178;2022-11-20T09:14:30;11.60;27.00
11559;DHT22;5835;42.930;25.178;2022-11-20T09:16:58;11.60;40.20
11559;DHT22;5835;42.930;25.178;2022-11-20T09:19:25;11.70;36.20
11559;DHT22;5835;42.930;25.178;2022-11-20T09:21:53;11.50;44.00
11559;DHT22;5835;42.930;25.178;2022-11-20T09:24:22;11.40;43.80
11559;DHT22;5835;42.930;25.178;2022-11-20T09:26:49;11.70;67.80
11559;DHT22;5835;42.930;25.178;2022-11-20T09:29:18;11.60;53.90
11559;DHT22;5835;42.930;25.178;2022-11-20T09:31:46;11.80;25.70
11559;DHT22;5835;42.930;25.178;2022-11-20T09:34:13;11.80;50.00
11559;DHT22;5835;42.930;25.178;2022-11-20T09:36:41;11.70;26.40
11559;DHT22;5835;42.930;25.178;2022-11-20T09:39:08;11.70;29.90
11559;DHT22;5835;42.930;25.178;2022-11-20T09:41:55;11.70;39.60
11559;DHT22;5835;42.930;25.178;2022-11-20T09:44:38;11.90;50.30
11559;DHT22;5835;42.930;25.178;2022-11-20T09:47:11;12.10;31.60
11559;DHT22;5835;42.930;25.178;2022-11-20T09:49:57;11.90;8.70
11559;DHT22;5835;42.930;25.178;2022-11-20T09:52:32;11.80;24.40
11559;DHT22;5835;42.930;25.178;2022-11-20T09:55:03;12.10;16.80
11559;DHT22;5835;42.930;25.178;2022-11-20T09:57:38;12.10;1.00
11559;DHT22;5835;42.930;25.178;2022-11-20T10:00:12;12.40;1.00
11559;DHT22;5835;42.930;25.178;2022-11-20T10:02:46;12.10;1.00
11559;DHT22;5835;42.930;25.178;2022-11-20T10:05:19;11.90;10.50
11559;DHT22;5835;42.930;25.178;2022-11-20T10:07:52;12.20;1.50
11559;DHT22;5835;42.930;25.178;2022-11-20T10:10:31;12.20;1.00
11559;DHT22;5835;42.930;25.178;2022-11-20T10:16:08;12.40;1.00
11559;DHT22;5835;42.930;25.178;2022-11-20T10:18:49;12.30;1.00
11559;DHT22;5835;42.930;25.178;2022-11-20T10:21:26;12.40;1.00
11559;DHT22;5835;42.930;25.178;2022-11-20T10:24:33;12.60;1.00
11559;DHT22;5835;42.930;25.178;2022-11-20T10:27:11;13.00;1.00
11559;DHT22;5835;42.930;25.178;2022-11-20T10:29:45;13.10;1.00
11559;DHT22;5835;42.930;25.178;2022-11-20T10:32:20;13.20;1.00
11559;DHT22;5835;42.930;25.178;2022-11-20T10:34:54;13.30;1.00
11559;DHT22;5835;42.930;25.178;2022-11-20T10:37:26;13.30;99.90
11559;DHT22;5835;42.930;25.178;2022-11-20T10:39:58;13.40;1.00
11559;DHT22;5835;42.930;25.178;2022-11-20T10:42:35;13.60;99.90
11559;DHT22;5835;42.930;25.178;2022-11-20T10:45:15;12.90;1.00
11559;DHT22;5835;42.930;25.178;2022-11-20T10:47:48;13.10;1.00
11559;DHT22;5835;42.930;25.178;2022-11-20T10:50:19;13.30;1.00
11559;DHT22;5835;42.930;25.178;2022-11-20T10:52:59;13.20;99.90
11559;DHT22;5835;42.930;25.178;2022-11-20T10:55:32;13.00;1.00
11559;DHT22;5835;42.930;25.178;2022-11-20T10:58:07;13.20;1.00
11559;DHT22;5835;42.930;25.178;2022-11-20T11:00:37;13.40;1.00
11559;DHT22;5835;42.930;25.178;2022-11-20T11:03:20;13.20;99.90
11559;DHT22;5835;42.930;25.178;2022-11-20T11:05:51;13.40;1.00
11559;DHT22;5835;42.930;25.178;2022-11-20T11:08:21;13.40;99.90
11559;DHT22;5835;42.930;25.178;2022-11-20T11:10:53;13.40;99.90
11559;DHT22;5835;42.930;25.178;2022-11-20T11:13:22;13.10;1.00
11559;DHT22;5835;42.930;25.178;2022-11-20T11:15:50;13.20;99.90
11559;DHT22;5835;42.930;25.178;2022-11-20T11:18:27;13.10;99.90
11559;DHT22;5835;42.930;25.178;2022-11-20T11:20:56;13.10;99.90
11559;DHT22;5835;42.930;25.178;2022-11-20T11:23:33;13.30;99.90
11559;DHT22;5835;42.930;25.178;2022-11-20T11:26:02;13.50;99.90
11559;DHT22;5835;42.930;25.178;2022-11-20T11:28:30;13.80;99.90
11559;DHT22;5835;42.930;25.178;2022-11-20T11:30:58;13.40;99.90
11559;DHT22;5835;42.930;25.178;2022-11-20T11:33:28;13.30;3.80
11559;DHT22;5835;42.930;25.178;2022-11-20T11:35:58;13.50;99.90
11559;DHT22;5835;42.930;25.178;2022-11-20T11:38:30;13.50;99.90
11559;DHT22;5835;42.930;25.178;2022-11-20T11:40:58;13.30;99.90
11559;DHT22;5835;42.930;25.178;2022-11-20T11:43:28;13.20;99.90
11559;DHT22;5835;42.930;25.178;2022-11-20T11:46:26;13.10;1.00
11559;DHT22;5835;42.930;25.178;2022-11-20T11:48:57;13.00;1.00
11559;DHT22;5835;42.930;25.178;2022-11-20T11:51:28;12.70;1.00
11559;DHT22;5835;42.930;25.178;2022-11-20T11:54:00;12.70;1.00
11559;DHT22;5835;42.930;25.178;2022-11-20T11:56:29;12.60;1.00
11559;DHT22;5835;42.930;25.178;2022-11-20T11:59:01;12.70;1.00
11559;DHT22;5835;42.930;25.178;2022-11-20T12:01:37;12.40;1.00
11559;DHT22;5835;42.930;25.178;2022-11-20T12:04:16;12.40;1.00
11559;DHT22;5835;42.930;25.178;2022-11-20T12:06:53;12.40;7.70
11559;DHT22;5835;42.930;25.178;2022-11-20T12:09:26;12.40;1.00
11559;DHT22;5835;42.930;25.178;2022-11-20T12:12:02;12.50;1.00
11559;DHT22;5835;42.930;25.178;2022-11-20T12:14:35;12.60;1.00
11559;DHT22;5835;42.930;25.178;2022-11-20T12:17:03;12.50;1.00
11559;DHT22;5835;42.930;25.178;2022-11-20T12:19:34;12.50;5.20
11559;DHT22;5835;42.930;25.178;2022-11-20T12:22:07;12.60;1.00
11559;DHT22;5835;42.930;25.178;2022-11-20T12:24:47;12.50;1.00
11559;DHT22;5835;42.930;25.178;2022-11-20T12:30:24;12.70;1.00
11559;DHT22;5835;42.930;25.178;2022-11-20T12:36:05;12.50;1.00
11559;DHT22;5835;42.930;25.178;2022-11-20T12:38:50;12.60;1.00
11559;DHT22;5835;42.930;25.178;2022-11-20T12:41:31;12.60;1.00
11559;DHT22;5835;42.930;25.178;2022-11-20T12:44:31;12.50;1.00
11559;DHT22;5835;42.930;25.178;2022-11-20T12:47:27;12.60;1.00
11559;DHT22;5835;42.930;25.178;2022-11-20T12:50:04;12.40;27.70
11559;DHT22;5835;42.930;25.178;2022-11-20T12:52:45;12.30;54.00
11559;DHT22;5835;42.930;25.178;2022-11-20T12:55:25;12.40;75.00
11559;DHT22;5835;42.930;25.178;2022-11-20T12:58:00;12.20;99.90
11559;DHT22;5835;42.930;25.178;2022-11-20T13:00:30;12.10;99.90
11559;DHT22;5835;42.930;25.178;2022-11-20T13:03:32;12.20;99.90
11559;DHT22;5835;42.930;25.178;2022-11-20T13:06:10;12.00;99.90
11559;DHT22;5835;42.930;25.178;2022-11-20T13:08:41;11.90;99.90
11559;DHT22;5835;42.930;25.178;2022-11-20T13:11:16;12.00;99.90
11559;DHT22;5835;42.930;25.178;2022-11-20T13:14:01;12.00;99.90
11559;DHT22;5835;42.930;25.178;2022-11-20T13:16:36;12.20;99.90
11559;DHT22;5835;42.930;25.178;2022-11-20T13:19:11;12.20;99.90
11559;DHT22;5835;42.930;25.178;2022-11-20T13:21:41;12.40;99.90
11559;DHT22;5835;42.930;25.178;2022-11-20T13:24:25;12.50;99.90
11559;DHT22;5835;42.930;25.178;2022-11-20T13:27:18;12.40;99.90
11559;DHT22;5835;42.930;25.178;2022-11-20T13:29:58;12.30;99.90
11559;DHT22;5835;42.930;25.178;2022-11-20T13:32:27;12.30;99.90
11559;DHT22;5835;42.930;25.178;2022-11-20T13:34:59;12.20;99.90
11559;DHT22;5835;42.930;25.178;2022-11-20T13:37:30;12.20;99.90
11559;DHT22;5835;42.930;25.178;2022-11-20T13:40:21;12.30;99.90
11559;DHT22;5835;42.930;25.178;2022-11-20T13:42:56;12.30;99.90
11559;DHT22;5835;42.930;25.178;2022-11-20T13:45:25;12.40;99.90
11559;DHT22;5835;42.930;25.178;2022-11-20T13:47:54;12.50;99.90
11559;DHT22;5835;42.930;25.178;2022-11-20T13:50:39;12.40;99.90
11559;DHT22;5835;42.930;25.178;2022-11-20T13:53:29;12.20;99.90
11559;DHT22;5835;42.930;25.178;2022-11-20T13:56:06;11.90;99.90
11559;DHT22;5835;42.930;25.178;2022-11-20T13:58:47;11.70;99.90
11559;DHT22;5835;42.930;25.178;2022-11-20T14:01:20;11.60;99.90
11559;DHT22;5835;42.930;25.178;2022-11-20T14:03:48;11.40;99.90
11559;DHT22;5835;42.930;25.178;2022-11-20T14:06:26;11.40;99.90
11559;DHT22;5835;42.930;25.178;2022-11-20T14:08:55;11.30;99.90
11559;DHT22;5835;42.930;25.178;2022-11-20T14:11:25;11.30;99.90
11559;DHT22;5835;42.930;25.178;2022-11-20T14:13:56;11.20;99.90
11559;DHT22;5835;42.930;25.178;2022-11-20T14:16:25;11.00;99.90
11559;DHT22;5835;42.930;25.178;2022-11-20T14:18:54;11.00;99.90
11559;DHT22;5835;42.930;25.178;2022-11-20T14:21:23;11.00;99.90
11559;DHT22;5835;42.930;25.178;2022-11-20T14:23:53;11.00;99.90
11559;DHT22;5835;42.930;25.178;2022-11-20T14:26:23;10.90;99.90
11559;DHT22;5835;42.930;25.178;2022-11-20T14:28:51;10.90;99.90
11559;DHT22;5835;42.930;25.178;2022-11-20T14:31:23;11.00;99.90
11559;DHT22;5835;42.930;25.178;2022-11-20T14:33:52;10.90;99.90
11559;DHT22;5835;42.930;25.178;2022-11-20T14:36:22;10.90;99.90
11559;DHT22;5835;42.930;25.178;2022-11-20T14:38:51;11.00;99.90
11559;DHT22;5835;42.930;25.178;2022-11-20T14:41:21;11.10;99.90
11559;DHT22;5835;42.930;25.178;2022-11-20T14:43:54;11.10;99.90
11559;DHT22;5835;42.930;25.178;2022-11-20T14:46:22;11.30;99.90
11559;DHT22;5835;42.930;25.178;2022-11-20T14:48:53;11.40;99.90
11559;DHT22;5835;42.930;25.178;2022-11-20T14:51:30;11.40;99.90
11559;DHT22;5835;42.930;25.178;2022-11-20T14:54:09;11.40;99.90
11559;DHT22;5835;42.930;25.178;2022-11-20T14:56:37;11.30;99.90
11559;DHT22;5835;42.930;25.178;2022-11-20T14:59:07;11.30;99.90
11559;DHT22;5835;42.930;25.178;2022-11-20T15:01:35;11.30;99.90
11559;DHT22;5835;42.930;25.178;2022-11-20T15:04:06;11.40;99.90
11559;DHT22;5835;42.930;25.178;2022-11-20T15:06:35;11.40;99.90
11559;DHT22;5835;42.930;25.178;2022-11-20T15:09:03;11.40;99.90
11559;DHT22;5835;42.930;25.178;2022-11-20T15:11:33;11.40;99.90
11559;DHT22;5835;42.930;25.178;2022-11-20T15:14:05;11.40;99.90
11559;DHT22;5835;42.930;25.178;2022-11-20T15:16:33;11.60;99.90
11559;DHT22;5835;42.930;25.178;2022-11-20T15:19:02;11.40;99.90
11559;DHT22;5835;42.930;25.178;2022-11-20T15:21:31;11.40;99.90
11559;DHT22;5835;42.930;25.178;2022-11-20T15:23:58;11.40;99.90
11559;DHT22;5835;42.930;25.178;2022-11-20T15:26:27;11.30;99.90
11559;DHT22;5835;42.930;25.178;2022-11-20T15:28:55;11.30;99.90
11559;DHT22;5835;42.930;25.178;2022-11-20T15:31:24;11.20;99.90
11559;DHT22;5835;42.930;25.178;2022-11-20T15:33:52;11.20;99.90
11559;DHT22;5835;42.930;25.178;2022-11-20T15:36:19;11.10;99.90
11559;DHT22;5835;42.930;25.178;2022-11-20T15:38:47;11.10;99.90
11559;DHT22;5835;42.930;25.178;2022-11-20T15:41:15;11.20;99.90
11559;DHT22;5835;42.930;25.178;2022-11-20T15:43:43;11.10;99.90
11559;DHT22;5835;42.930;25.178;2022-11-20T15:46:13;11.00;99.90
11559;DHT22;5835;42.930;25.178;2022-11-20T15:48:44;11.10;99.90
11559;DHT22;5835;42.930;25.178;2022-11-20T15:51:21;11.10;99.90
11559;DHT22;5835;42.930;25.178;2022-11-20T15:53:51;11.20;99.90
11559;DHT22;5835;42.930;25.178;2022-11-20T15:56:18;11.20;99.90
11559;DHT22;5835;42.930;25.178;2022-11-20T15:58:46;11.20;99.90
11559;DHT22;5835;42.930;25.178;2022-11-20T16:01:15;11.20;99.90
11559;DHT22;5835;42.930;25.178;2022-11-20T16:03:44;11.20;99.90
11559;DHT22;5835;42.930;25.178;2022-11-20T16:06:12;11.20;99.90
11559;DHT22;5835;42.930;25.178;2022-11-20T16:08:41;11.20;99.90